sensor_id;sensor_type;location;lat;lon;timestamp;temperature;humidity
336;DHT22;156;48.738;9.228;2023-02-22T00:01:48;8.80;1.00
336;DHT22;156;48.738;9.228;2023-02-22T00:04:35;8.80;1.00
336;DHT22;156;48.738;9.228;2023-02-22T00:07:04;8.70;1.00
336;DHT22;156;48.738;9.228;2023-02-22T00:09:36;8.70;1.00
336;DHT22;156;48.738;9.228;2023-02-22T00:12:11;8.70;1.00
336;DHT22;156;48.738;9.228;2023-02-22T00:14:44;8.70;1.00
336;DHT22;156;48.738;9.228;2023-02-22T00:17:15;8.70;1.00
336;DHT22;156;48.738;9.228;2023-02-22T00:19:48;8.70;1.00
336;DHT22;156;48.738;9.228;2023-02-22T00:22:17;8.60;1.00
336;DHT22;156;48.738;9.228;2023-02-22T00:24:49;8.40;1.00
336;DHT22;156;48.738;9.228;2023-02-22T00:27:22;8.20;1.00
336;DHT22;156;48.738;9.228;2023-02-22T00:29:53;8.00;1.00
336;DHT22;156;48.738;9.228;2023-02-22T00:32:34;8.00;1.00
336;DHT22;156;48.738;9.228;2023-02-22T00:35:02;8.00;1.00
336;DHT22;156;48.738;9.228;2023-02-22T00:37:33;8.00;1.00
336;DHT22;156;48.738;9.228;2023-02-22T00:40:10;8.00;1.00
336;DHT22;156;48.738;9.228;2023-02-22T00:42:41;8.00;1.00
336;DHT22;156;48.738;9.228;2023-02-22T00:45:22;7.80;1.00
336;DHT22;156;48.738;9.228;2023-02-22T00:47:54;7.50;1.00
336;DHT22;156;48.738;9.228;2023-02-22T00:50:22;7.40;1.00
336;DHT22;156;48.738;9.228;2023-02-22T00:52:52;7.40;1.00
336;DHT22;156;48.738;9.228;2023-02-22T00:57:51;7.30;1.00
336;DHT22;156;48.738;9.228;2023-02-22T01:00:21;7.30;1.00
336;DHT22;156;48.738;9.228;2023-02-22T01:02:49;7.40;1.00
336;DHT22;156;48.738;9.228;2023-02-22T01:05:20;7.50;1.00
336;DHT22;156;48.738;9.228;2023-02-22T01:07:48;7.50;1.00
336;DHT22;156;48.738;9.228;2023-02-22T01:10:17;7.60;1.00
336;DHT22;156;48.738;9.228;2023-02-22T01:12:44;7.70;1.00
336;DHT22;156;48.738;9.228;2023-02-22T01:15:13;7.70;1.00
336;DHT22;156;48.738;9.228;2023-02-22T01:17:41;7.60;1.00
336;DHT22;156;48.738;9.228;2023-02-22T01:20:10;7.60;1.00
336;DHT22;156;48.738;9.228;2023-02-22T01:22:38;7.50;1.00
336;DHT22;156;48.738;9.228;2023-02-22T01:25:06;7.40;1.00
336;DHT22;156;48.738;9.228;2023-02-22T01:27:33;7.40;1.00
336;DHT22;156;48.738;9.228;2023-02-22T01:30:00;7.40;1.00
336;DHT22;156;48.738;9.228;2023-02-22T01:32:33;7.40;1.00
336;DHT22;156;48.738;9.228;2023-02-22T01:35:01;7.40;1.00
336;DHT22;156;48.738;9.228;2023-02-22T01:37:30;7.50;1.00
336;DHT22;156;48.738;9.228;2023-02-22T01:39:57;7.50;1.00
336;DHT22;156;48.738;9.228;2023-02-22T01:42:24;7.30;1.00
336;DHT22;156;48.738;9.228;2023-02-22T01:47:51;7.10;1.00
336;DHT22;156;48.738;9.228;2023-02-22T01:50:20;7.00;1.00
336;DHT22;156;48.738;9.228;2023-02-22T01:52:47;6.90;1.00
336;DHT22;156;48.738;9.228;2023-02-22T01:55:15;6.90;1.00
336;DHT22;156;48.738;9.228;2023-02-22T01:57:43;6.90;1.00
336;DHT22;156;48.738;9.228;2023-02-22T02:00:13;6.80;1.00
336;DHT22;156;48.738;9.228;2023-02-22T02:02:44;6.80;1.00
336;DHT22;156;48.738;9.228;2023-02-22T02:05:11;6.70;1.00
336;DHT22;156;48.738;9.228;2023-02-22T02:07:40;6.70;1.00
336;DHT22;156;48.738;9.228;2023-02-22T02:10:12;6.70;1.00
336;DHT22;156;48.738;9.228;2023-02-22T02:12:43;6.60;1.00
336;DHT22;156;48.738;9.228;2023-02-22T02:15:19;6.60;1.00
336;DHT22;156;48.738;9.228;2023-02-22T02:17:47;6.50;1.00
336;DHT22;156;48.738;9.228;2023-02-22T02:20:21;6.40;1.00
336;DHT22;156;48.738;9.228;2023-02-22T02:22:55;6.40;1.00
336;DHT22;156;48.738;9.228;2023-02-22T02:26:02;6.30;1.00
336;DHT22;156;48.738;9.228;2023-02-22T02:28:55;6.10;1.00
336;DHT22;156;48.738;9.228;2023-02-22T02:34:24;6.00;1.00
336;DHT22;156;48.738;9.228;2023-02-22T02:37:00;5.90;1.00
336;DHT22;156;48.738;9.228;2023-02-22T02:39:36;5.70;1.00
336;DHT22;156;48.738;9.228;2023-02-22T02:42:07;5.70;1.00
336;DHT22;156;48.738;9.228;2023-02-22T02:44:39;5.60;1.00
336;DHT22;156;48.738;9.228;2023-02-22T02:47:12;5.50;1.00
336;DHT22;156;48.738;9.228;2023-02-22T02:49:47;5.50;1.00
336;DHT22;156;48.738;9.228;2023-02-22T02:52:17;5.40;1.00
336;DHT22;156;48.738;9.228;2023-02-22T02:54:45;5.40;1.00
336;DHT22;156;48.738;9.228;2023-02-22T02:57:12;5.40;1.00
336;DHT22;156;48.738;9.228;2023-02-22T02:59:39;5.40;1.00
336;DHT22;156;48.738;9.228;2023-02-22T03:02:26;5.40;1.00
336;DHT22;156;48.738;9.228;2023-02-22T03:05:11;5.30;1.00
336;DHT22;156;48.738;9.228;2023-02-22T03:07:49;5.20;1.00
336;DHT22;156;48.738;9.228;2023-02-22T03:10:36;5.20;1.00
336;DHT22;156;48.738;9.228;2023-02-22T03:13:08;5.10;1.00
336;DHT22;156;48.738;9.228;2023-02-22T03:15:43;5.10;1.00
336;DHT22;156;48.738;9.228;2023-02-22T03:18:22;5.10;1.00
336;DHT22;156;48.738;9.228;2023-02-22T03:20:59;5.00;1.00
336;DHT22;156;48.738;9.228;2023-02-22T03:23:30;5.00;1.00
336;DHT22;156;48.738;9.228;2023-02-22T03:26:02;4.90;1.00
336;DHT22;156;48.738;9.228;2023-02-22T03:28:31;4.90;1.00
336;DHT22;156;48.738;9.228;2023-02-22T03:31:00;4.90;1.00
336;DHT22;156;48.738;9.228;2023-02-22T03:33:32;4.90;1.00
336;DHT22;156;48.738;9.228;2023-02-22T03:36:08;4.90;1.00
336;DHT22;156;48.738;9.228;2023-02-22T03:38:38;4.90;1.00
336;DHT22;156;48.738;9.228;2023-02-22T03:41:07;4.90;1.00
336;DHT22;156;48.738;9.228;2023-02-22T03:43:37;4.90;1.00
336;DHT22;156;48.738;9.228;2023-02-22T03:46:07;4.80;1.00
336;DHT22;156;48.738;9.228;2023-02-22T03:48:38;4.80;1.00
336;DHT22;156;48.738;9.228;2023-02-22T03:51:10;4.80;1.00
336;DHT22;156;48.738;9.228;2023-02-22T03:53:40;4.80;1.00
336;DHT22;156;48.738;9.228;2023-02-22T03:56:12;4.70;1.00
336;DHT22;156;48.738;9.228;2023-02-22T03:58:41;4.70;1.00
336;DHT22;156;48.738;9.228;2023-02-22T04:01:10;4.70;1.00
336;DHT22;156;48.738;9.228;2023-02-22T04:03:37;4.70;1.00
336;DHT22;156;48.738;9.228;2023-02-22T04:06:07;4.70;1.00
336;DHT22;156;48.738;9.228;2023-02-22T04:08:35;4.60;1.00
336;DHT22;156;48.738;9.228;2023-02-22T04:11:03;4.60;1.00
336;DHT22;156;48.738;9.228;2023-02-22T04:13:30;4.50;1.00
336;DHT22;156;48.738;9.228;2023-02-22T04:15:56;4.50;1.00
336;DHT22;156;48.738;9.228;2023-02-22T04:18:23;4.50;1.00
336;DHT22;156;48.738;9.228;2023-02-22T04:20:50;4.50;1.00
336;DHT22;156;48.738;9.228;2023-02-22T04:23:17;4.50;1.00
336;DHT22;156;48.738;9.228;2023-02-22T04:25:45;4.40;1.00
336;DHT22;156;48.738;9.228;2023-02-22T04:28:12;4.40;1.00
336;DHT22;156;48.738;9.228;2023-02-22T04:30:39;4.40;1.00
336;DHT22;156;48.738;9.228;2023-02-22T04:33:06;4.40;1.00
336;DHT22;156;48.738;9.228;2023-02-22T04:35:33;4.30;1.00
336;DHT22;156;48.738;9.228;2023-02-22T04:38:00;4.30;1.00
336;DHT22;156;48.738;9.228;2023-02-22T04:40:27;4.60;5.50
336;DHT22;156;48.738;9.228;2023-02-22T04:42:55;4.70;6.90
336;DHT22;156;48.738;9.228;2023-02-22T04:45:22;4.90;1.00
336;DHT22;156;48.738;9.228;2023-02-22T04:47:49;4.90;1.00
336;DHT22;156;48.738;9.228;2023-02-22T04:50:16;4.80;1.00
336;DHT22;156;48.738;9.228;2023-02-22T04:52:43;4.80;1.00
336;DHT22;156;48.738;9.228;2023-02-22T04:55:10;4.70;1.00
336;DHT22;156;48.738;9.228;2023-02-22T04:57:37;4.60;1.00
336;DHT22;156;48.738;9.228;2023-02-22T05:00:06;4.50;1.00
336;DHT22;156;48.738;9.228;2023-02-22T05:02:36;4.40;1.00
336;DHT22;156;48.738;9.228;2023-02-22T05:05:03;4.40;1.00
336;DHT22;156;48.738;9.228;2023-02-22T05:07:30;4.30;1.00
336;DHT22;156;48.738;9.228;2023-02-22T05:09:57;4.30;1.00
336;DHT22;156;48.738;9.228;2023-02-22T05:12:26;4.30;1.00
336;DHT22;156;48.738;9.228;2023-02-22T05:14:53;4.30;1.00
336;DHT22;156;48.738;9.228;2023-02-22T05:17:21;4.30;1.00
336;DHT22;156;48.738;9.228;2023-02-22T05:19:48;4.30;1.00
336;DHT22;156;48.738;9.228;2023-02-22T05:22:15;4.30;1.00
336;DHT22;156;48.738;9.228;2023-02-22T05:24:42;4.20;1.00
336;DHT22;156;48.738;9.228;2023-02-22T05:27:09;4.20;1.00
336;DHT22;156;48.738;9.228;2023-02-22T05:29:36;4.20;1.00
336;DHT22;156;48.738;9.228;2023-02-22T05:32:03;4.10;1.00
336;DHT22;156;48.738;9.228;2023-02-22T05:34:32;4.10;1.00
336;DHT22;156;48.738;9.228;2023-02-22T05:36:59;4.10;1.00
336;DHT22;156;48.738;9.228;2023-02-22T05:39:27;4.10;1.00
336;DHT22;156;48.738;9.228;2023-02-22T05:41:54;4.00;1.00
336;DHT22;156;48.738;9.228;2023-02-22T05:44:21;3.90;1.20
336;DHT22;156;48.738;9.228;2023-02-22T05:46:48;3.80;4.70
336;DHT22;156;48.738;9.228;2023-02-22T05:49:15;3.80;6.70
336;DHT22;156;48.738;9.228;2023-02-22T05:51:43;3.80;9.00
336;DHT22;156;48.738;9.228;2023-02-22T05:54:10;3.80;10.00
336;DHT22;156;48.738;9.228;2023-02-22T05:56:37;3.90;10.30
336;DHT22;156;48.738;9.228;2023-02-22T05:59:04;3.90;10.50
336;DHT22;156;48.738;9.228;2023-02-22T06:01:31;4.00;8.70
336;DHT22;156;48.738;9.228;2023-02-22T06:03:58;4.00;6.40
336;DHT22;156;48.738;9.228;2023-02-22T06:06:25;4.00;6.40
336;DHT22;156;48.738;9.228;2023-02-22T06:08:53;4.00;6.40
336;DHT22;156;48.738;9.228;2023-02-22T06:11:20;4.10;7.10
336;DHT22;156;48.738;9.228;2023-02-22T06:13:50;4.10;6.50
336;DHT22;156;48.738;9.228;2023-02-22T06:16:17;4.10;4.90
336;DHT22;156;48.738;9.228;2023-02-22T06:18:45;4.20;5.00
336;DHT22;156;48.738;9.228;2023-02-22T06:21:12;4.20;6.10
336;DHT22;156;48.738;9.228;2023-02-22T06:23:39;4.20;4.20
336;DHT22;156;48.738;9.228;2023-02-22T06:26:07;4.20;3.10
336;DHT22;156;48.738;9.228;2023-02-22T06:28:34;4.10;5.20
336;DHT22;156;48.738;9.228;2023-02-22T06:31:01;4.00;9.30
336;DHT22;156;48.738;9.228;2023-02-22T06:33:28;4.10;7.10
336;DHT22;156;48.738;9.228;2023-02-22T06:35:55;4.00;6.60
336;DHT22;156;48.738;9.228;2023-02-22T06:38:23;4.00;7.20
336;DHT22;156;48.738;9.228;2023-02-22T06:40:50;4.10;7.80
336;DHT22;156;48.738;9.228;2023-02-22T06:43:18;4.10;6.70
336;DHT22;156;48.738;9.228;2023-02-22T06:45:45;4.10;6.50
336;DHT22;156;48.738;9.228;2023-02-22T06:48:12;4.20;6.60
336;DHT22;156;48.738;9.228;2023-02-22T06:50:45;4.10;6.50
336;DHT22;156;48.738;9.228;2023-02-22T06:53:12;4.10;6.50
336;DHT22;156;48.738;9.228;2023-02-22T07:02:17;4.20;10.80
336;DHT22;156;48.738;9.228;2023-02-22T07:05:49;5.70;14.40
336;DHT22;156;48.738;9.228;2023-02-22T07:09:14;4.00;14.70
336;DHT22;156;48.738;9.228;2023-02-22T07:13:33;3.70;14.10
336;DHT22;156;48.738;9.228;2023-02-22T07:15:25;4.10;14.50
336;DHT22;156;48.738;9.228;2023-02-22T07:22:06;4.40;7.00
336;DHT22;156;48.738;9.228;2023-02-22T07:28:28;5.10;1.00
336;DHT22;156;48.738;9.228;2023-02-22T07:31:36;5.20;1.00
336;DHT22;156;48.738;9.228;2023-02-22T07:34:59;5.50;1.00
336;DHT22;156;48.738;9.228;2023-02-22T07:41:00;5.40;1.00
336;DHT22;156;48.738;9.228;2023-02-22T07:46:56;5.70;1.00
336;DHT22;156;48.738;9.228;2023-02-22T07:50:00;5.60;1.00
336;DHT22;156;48.738;9.228;2023-02-22T07:56:26;6.10;1.00
336;DHT22;156;48.738;9.228;2023-02-22T08:03:14;6.30;1.00
336;DHT22;156;48.738;9.228;2023-02-22T08:09:09;6.60;1.00
336;DHT22;156;48.738;9.228;2023-02-22T08:10:02;6.80;1.00
336;DHT22;156;48.738;9.228;2023-02-22T08:12:58;7.30;1.00
336;DHT22;156;48.738;9.228;2023-02-22T08:16:17;7.30;1.00
336;DHT22;156;48.738;9.228;2023-02-22T08:19:05;7.80;1.00
336;DHT22;156;48.738;9.228;2023-02-22T08:22:11;7.70;1.00
336;DHT22;156;48.738;9.228;2023-02-22T08:24:56;8.30;1.00
336;DHT22;156;48.738;9.228;2023-02-22T08:27:36;8.50;1.00
336;DHT22;156;48.738;9.228;2023-02-22T08:30:15;8.60;1.00
336;DHT22;156;48.738;9.228;2023-02-22T08:32:51;10.00;1.00
336;DHT22;156;48.738;9.228;2023-02-22T08:35:26;8.70;1.00
336;DHT22;156;48.738;9.228;2023-02-22T08:38:16;10.20;1.00
336;DHT22;156;48.738;9.228;2023-02-22T08:40:48;9.00;1.00
336;DHT22;156;48.738;9.228;2023-02-22T08:43:19;8.70;1.00
336;DHT22;156;48.738;9.228;2023-02-22T08:45:52;9.60;1.00
336;DHT22;156;48.738;9.228;2023-02-22T08:48:27;8.70;1.00
336;DHT22;156;48.738;9.228;2023-02-22T08:51:06;9.80;1.00
336;DHT22;156;48.738;9.228;2023-02-22T08:56:44;8.80;1.00
336;DHT22;156;48.738;9.228;2023-02-22T08:59:37;8.60;1.00
336;DHT22;156;48.738;9.228;2023-02-22T09:02:23;8.90;1.00
336;DHT22;156;48.738;9.228;2023-02-22T09:04:54;9.10;1.00
336;DHT22;156;48.738;9.228;2023-02-22T09:07:51;9.00;1.00
336;DHT22;156;48.738;9.228;2023-02-22T09:10:32;9.80;1.00
336;DHT22;156;48.738;9.228;2023-02-22T09:13:07;9.80;1.00
336;DHT22;156;48.738;9.228;2023-02-22T09:16:02;9.50;1.00
336;DHT22;156;48.738;9.228;2023-02-22T09:18:50;9.00;1.00
336;DHT22;156;48.738;9.228;2023-02-22T09:21:36;9.10;1.00
336;DHT22;156;48.738;9.228;2023-02-22T09:24:13;9.20;1.00
336;DHT22;156;48.738;9.228;2023-02-22T09:26:57;10.00;1.00
336;DHT22;156;48.738;9.228;2023-02-22T09:29:29;9.50;1.00
336;DHT22;156;48.738;9.228;2023-02-22T09:32:04;9.90;1.00
336;DHT22;156;48.738;9.228;2023-02-22T09:34:45;9.90;1.00
336;DHT22;156;48.738;9.228;2023-02-22T09:37:13;10.10;1.00
336;DHT22;156;48.738;9.228;2023-02-22T09:39:44;9.80;1.00
336;DHT22;156;48.738;9.228;2023-02-22T09:42:21;9.90;1.00
336;DHT22;156;48.738;9.228;2023-02-22T09:45:00;9.50;1.00
336;DHT22;156;48.738;9.228;2023-02-22T09:47:39;9.70;1.00
336;DHT22;156;48.738;9.228;2023-02-22T09:50:19;9.60;1.00
336;DHT22;156;48.738;9.228;2023-02-22T09:52:55;9.50;1.00
336;DHT22;156;48.738;9.228;2023-02-22T09:55:53;9.50;1.00
336;DHT22;156;48.738;9.228;2023-02-22T09:58:30;9.90;1.00
336;DHT22;156;48.738;9.228;2023-02-22T10:01:24;9.60;1.00
336;DHT22;156;48.738;9.228;2023-02-22T10:04:22;9.30;1.00
336;DHT22;156;48.738;9.228;2023-02-22T10:07:16;9.70;1.00
336;DHT22;156;48.738;9.228;2023-02-22T10:09:47;9.80;1.00
336;DHT22;156;48.738;9.228;2023-02-22T10:12:39;10.40;1.00
336;DHT22;156;48.738;9.228;2023-02-22T10:15:32;10.00;1.00
336;DHT22;156;48.738;9.228;2023-02-22T10:21:20;10.30;1.00
336;DHT22;156;48.738;9.228;2023-02-22T10:24:01;10.30;1.00
336;DHT22;156;48.738;9.228;2023-02-22T10:26:35;10.50;1.00
336;DHT22;156;48.738;9.228;2023-02-22T10:29:15;10.60;1.00
336;DHT22;156;48.738;9.228;2023-02-22T10:31:56;10.90;1.00
336;DHT22;156;48.738;9.228;2023-02-22T10:34:38;11.10;1.00
336;DHT22;156;48.738;9.228;2023-02-22T10:37:18;11.10;1.00
336;DHT22;156;48.738;9.228;2023-02-22T10:39:56;11.40;1.00
336;DHT22;156;48.738;9.228;2023-02-22T10:42:25;11.50;1.00
336;DHT22;156;48.738;9.228;2023-02-22T10:44:53;11.40;1.00
336;DHT22;156;48.738;9.228;2023-02-22T10:47:31;11.50;1.00
336;DHT22;156;48.738;9.228;2023-02-22T10:50:01;11.80;1.00
336;DHT22;156;48.738;9.228;2023-02-22T10:52:34;11.70;1.00
336;DHT22;156;48.738;9.228;2023-02-22T10:55:18;11.80;1.00
336;DHT22;156;48.738;9.228;2023-02-22T10:58:02;11.90;1.00
336;DHT22;156;48.738;9.228;2023-02-22T11:00:46;12.10;1.00
336;DHT22;156;48.738;9.228;2023-02-22T11:03:22;12.10;1.00
336;DHT22;156;48.738;9.228;2023-02-22T11:06:22;12.40;1.00
336;DHT22;156;48.738;9.228;2023-02-22T11:09:08;11.20;1.00
336;DHT22;156;48.738;9.228;2023-02-22T11:11:42;12.20;1.00
336;DHT22;156;48.738;9.228;2023-02-22T11:14:37;12.80;1.00
336;DHT22;156;48.738;9.228;2023-02-22T11:17:17;12.30;1.00
336;DHT22;156;48.738;9.228;2023-02-22T11:19:53;12.40;1.00
336;DHT22;156;48.738;9.228;2023-02-22T11:22:28;12.20;1.00
336;DHT22;156;48.738;9.228;2023-02-22T11:25:05;12.30;1.00
336;DHT22;156;48.738;9.228;2023-02-22T11:27:43;12.20;1.00
336;DHT22;156;48.738;9.228;2023-02-22T11:30:24;12.20;1.00
336;DHT22;156;48.738;9.228;2023-02-22T11:32:58;12.10;1.00
336;DHT22;156;48.738;9.228;2023-02-22T11:35:51;12.40;1.00
336;DHT22;156;48.738;9.228;2023-02-22T11:38:25;12.20;1.00
336;DHT22;156;48.738;9.228;2023-02-22T11:41:20;12.20;1.00
336;DHT22;156;48.738;9.228;2023-02-22T11:44:12;12.10;1.00
336;DHT22;156;48.738;9.228;2023-02-22T11:46:41;12.20;1.00
336;DHT22;156;48.738;9.228;2023-02-22T11:49:14;12.10;1.00
336;DHT22;156;48.738;9.228;2023-02-22T11:52:06;12.40;1.00
336;DHT22;156;48.738;9.228;2023-02-22T11:54:50;12.30;1.00
336;DHT22;156;48.738;9.228;2023-02-22T12:00:17;12.50;1.00
336;DHT22;156;48.738;9.228;2023-02-22T12:03:22;12.60;1.00
336;DHT22;156;48.738;9.228;2023-02-22T12:06:05;12.60;1.00
336;DHT22;156;48.738;9.228;2023-02-22T12:09:05;12.70;1.00
336;DHT22;156;48.738;9.228;2023-02-22T12:11:54;12.80;1.00
336;DHT22;156;48.738;9.228;2023-02-22T12:14:58;12.90;1.00
336;DHT22;156;48.738;9.228;2023-02-22T12:20:35;12.80;1.00
336;DHT22;156;48.738;9.228;2023-02-22T12:23:17;12.90;1.00
336;DHT22;156;48.738;9.228;2023-02-22T12:26:14;13.00;1.00
336;DHT22;156;48.738;9.228;2023-02-22T12:28:57;12.90;1.00
336;DHT22;156;48.738;9.228;2023-02-22T12:31:43;12.90;1.00
336;DHT22;156;48.738;9.228;2023-02-22T12:34:37;12.90;1.00
336;DHT22;156;48.738;9.228;2023-02-22T12:37:19;12.20;1.00
336;DHT22;156;48.738;9.228;2023-02-22T12:40:06;13.00;1.00
336;DHT22;156;48.738;9.228;2023-02-22T12:43:39;12.80;1.00
336;DHT22;156;48.738;9.228;2023-02-22T12:46:03;13.00;1.00
336;DHT22;156;48.738;9.228;2023-02-22T12:48:41;13.00;1.00
336;DHT22;156;48.738;9.228;2023-02-22T12:51:26;13.10;1.00
336;DHT22;156;48.738;9.228;2023-02-22T12:53:58;13.20;1.00
336;DHT22;156;48.738;9.228;2023-02-22T12:56:32;13.10;1.00
336;DHT22;156;48.738;9.228;2023-02-22T12:59:05;13.00;1.00
336;DHT22;156;48.738;9.228;2023-02-22T13:01:37;13.10;1.00
336;DHT22;156;48.738;9.228;2023-02-22T13:04:05;13.10;1.00
336;DHT22;156;48.738;9.228;2023-02-22T13:06:48;13.10;1.00
336;DHT22;156;48.738;9.228;2023-02-22T13:12:12;13.20;1.00
336;DHT22;156;48.738;9.228;2023-02-22T13:14:50;13.20;1.00
336;DHT22;156;48.738;9.228;2023-02-22T13:17:24;13.30;1.00
336;DHT22;156;48.738;9.228;2023-02-22T13:19:57;13.60;1.00
336;DHT22;156;48.738;9.228;2023-02-22T13:22:33;14.00;1.00
336;DHT22;156;48.738;9.228;2023-02-22T13:25:05;14.30;1.00
336;DHT22;156;48.738;9.228;2023-02-22T13:27:40;14.30;1.00
336;DHT22;156;48.738;9.228;2023-02-22T13:30:17;14.40;1.00
336;DHT22;156;48.738;9.228;2023-02-22T13:35:57;14.70;1.00
336;DHT22;156;48.738;9.228;2023-02-22T13:38:45;14.80;1.00
336;DHT22;156;48.738;9.228;2023-02-22T13:41:28;14.60;1.00
336;DHT22;156;48.738;9.228;2023-02-22T13:44:22;14.80;1.00
336;DHT22;156;48.738;9.228;2023-02-22T13:49:54;14.80;1.00
336;DHT22;156;48.738;9.228;2023-02-22T13:52:29;14.80;1.00
336;DHT22;156;48.738;9.228;2023-02-22T13:55:00;14.60;1.00
336;DHT22;156;48.738;9.228;2023-02-22T13:57:29;14.80;1.00
336;DHT22;156;48.738;9.228;2023-02-22T14:00:19;14.80;1.00
336;DHT22;156;48.738;9.228;2023-02-22T14:03:00;14.50;1.00
336;DHT22;156;48.738;9.228;2023-02-22T14:05:49;14.20;1.00
336;DHT22;156;48.738;9.228;2023-02-22T14:08:41;14.10;1.00
336;DHT22;156;48.738;9.228;2023-02-22T14:14:22;14.00;1.00
336;DHT22;156;48.738;9.228;2023-02-22T14:20:00;13.70;1.00
336;DHT22;156;48.738;9.228;2023-02-22T14:22:29;13.50;1.00
336;DHT22;156;48.738;9.228;2023-02-22T14:24:56;13.40;1.00
336;DHT22;156;48.738;9.228;2023-02-22T14:27:24;13.50;1.00
336;DHT22;156;48.738;9.228;2023-02-22T14:29:55;13.60;1.00
336;DHT22;156;48.738;9.228;2023-02-22T14:32:30;13.80;1.00
336;DHT22;156;48.738;9.228;2023-02-22T14:34:58;14.00;1.00
336;DHT22;156;48.738;9.228;2023-02-22T14:37:27;14.20;1.00
336;DHT22;156;48.738;9.228;2023-02-22T14:39:58;14.20;1.00
336;DHT22;156;48.738;9.228;2023-02-22T14:42:33;14.20;1.00
336;DHT22;156;48.738;9.228;2023-02-22T14:45:13;14.20;1.00
336;DHT22;156;48.738;9.228;2023-02-22T14:47:47;14.10;1.00
336;DHT22;156;48.738;9.228;2023-02-22T14:50:19;14.10;1.00
336;DHT22;156;48.738;9.228;2023-02-22T14:52:55;14.00;1.00
336;DHT22;156;48.738;9.228;2023-02-22T14:55:25;13.80;1.00
336;DHT22;156;48.738;9.228;2023-02-22T14:57:59;13.80;1.00
336;DHT22;156;48.738;9.228;2023-02-22T15:00:37;13.80;1.00
336;DHT22;156;48.738;9.228;2023-02-22T15:03:04;13.60;1.00
336;DHT22;156;48.738;9.228;2023-02-22T15:05:35;13.50;1.00
336;DHT22;156;48.738;9.228;2023-02-22T15:08:07;13.40;1.00
336;DHT22;156;48.738;9.228;2023-02-22T15:10:40;13.30;1.00
336;DHT22;156;48.738;9.228;2023-02-22T15:13:15;13.20;1.00
336;DHT22;156;48.738;9.228;2023-02-22T15:15:46;13.10;1.00
336;DHT22;156;48.738;9.228;2023-02-22T15:18:20;13.20;1.00
336;DHT22;156;48.738;9.228;2023-02-22T15:20:50;13.20;1.00
336;DHT22;156;48.738;9.228;2023-02-22T15:23:21;13.20;1.00
336;DHT22;156;48.738;9.228;2023-02-22T15:25:49;13.20;1.00
336;DHT22;156;48.738;9.228;2023-02-22T15:28:17;13.20;1.00
336;DHT22;156;48.738;9.228;2023-02-22T15:30:45;13.20;1.00
336;DHT22;156;48.738;9.228;2023-02-22T15:33:14;13.20;1.00
336;DHT22;156;48.738;9.228;2023-02-22T15:35:43;13.10;1.00
336;DHT22;156;48.738;9.228;2023-02-22T15:38:28;13.00;1.00
336;DHT22;156;48.738;9.228;2023-02-22T15:40:59;12.90;1.00
336;DHT22;156;48.738;9.228;2023-02-22T15:43:27;12.90;1.00
336;DHT22;156;48.738;9.228;2023-02-22T15:45:56;12.80;1.00
336;DHT22;156;48.738;9.228;2023-02-22T15:48:24;12.80;1.00
336;DHT22;156;48.738;9.228;2023-02-22T15:51:00;12.80;1.00
336;DHT22;156;48.738;9.228;2023-02-22T15:53:31;12.80;1.00
336;DHT22;156;48.738;9.228;2023-02-22T15:56:06;12.70;1.00
336;DHT22;156;48.738;9.228;2023-02-22T15:58:35;12.70;1.00
336;DHT22;156;48.738;9.228;2023-02-22T16:01:06;12.60;1.00
336;DHT22;156;48.738;9.228;2023-02-22T16:03:37;12.50;1.00
336;DHT22;156;48.738;9.228;2023-02-22T16:06:11;12.40;1.00
336;DHT22;156;48.738;9.228;2023-02-22T16:08:42;12.50;1.00
336;DHT22;156;48.738;9.228;2023-02-22T16:11:13;12.50;1.00
336;DHT22;156;48.738;9.228;2023-02-22T16:13:41;12.50;1.00
336;DHT22;156;48.738;9.228;2023-02-22T16:16:24;12.60;1.00
336;DHT22;156;48.738;9.228;2023-02-22T16:22:00;12.40;1.00
336;DHT22;156;48.738;9.228;2023-02-22T16:24:30;12.30;1.00
336;DHT22;156;48.738;9.228;2023-02-22T16:30:22;12.20;1.00
336;DHT22;156;48.738;9.228;2023-02-22T16:32:51;12.20;1.00
336;DHT22;156;48.738;9.228;2023-02-22T16:35:18;12.10;1.00
336;DHT22;156;48.738;9.228;2023-02-22T16:37:47;12.00;1.00
336;DHT22;156;48.738;9.228;2023-02-22T16:40:20;12.00;1.00
336;DHT22;156;48.738;9.228;2023-02-22T16:42:47;12.00;1.00
336;DHT22;156;48.738;9.228;2023-02-22T16:45:16;11.90;1.00
336;DHT22;156;48.738;9.228;2023-02-22T16:47:43;11.80;1.00
336;DHT22;156;48.738;9.228;2023-02-22T16:50:11;11.80;1.00
336;DHT22;156;48.738;9.228;2023-02-22T16:52:39;11.70;1.00
336;DHT22;156;48.738;9.228;2023-02-22T16:55:11;11.70;1.00
336;DHT22;156;48.738;9.228;2023-02-22T16:57:38;11.70;1.00
336;DHT22;156;48.738;9.228;2023-02-22T17:00:10;11.70;1.00
336;DHT22;156;48.738;9.228;2023-02-22T17:02:37;11.60;1.00
336;DHT22;156;48.738;9.228;2023-02-22T17:05:05;11.60;1.00
336;DHT22;156;48.738;9.228;2023-02-22T17:07:32;11.60;1.00
336;DHT22;156;48.738;9.228;2023-02-22T17:09:59;11.60;1.00
336;DHT22;156;48.738;9.228;2023-02-22T17:12:28;11.60;1.00
336;DHT22;156;48.738;9.228;2023-02-22T17:14:56;11.70;1.00
336;DHT22;156;48.738;9.228;2023-02-22T17:17:23;11.60;1.00
336;DHT22;156;48.738;9.228;2023-02-22T17:19:51;11.60;1.00
336;DHT22;156;48.738;9.228;2023-02-22T17:22:21;11.50;1.00
336;DHT22;156;48.738;9.228;2023-02-22T17:24:48;11.40;1.00
336;DHT22;156;48.738;9.228;2023-02-22T17:27:15;11.40;1.00
336;DHT22;156;48.738;9.228;2023-02-22T17:29:43;11.30;1.00
336;DHT22;156;48.738;9.228;2023-02-22T17:32:11;11.30;1.00
336;DHT22;156;48.738;9.228;2023-02-22T17:34:38;11.20;1.00
336;DHT22;156;48.738;9.228;2023-02-22T17:37:05;11.10;1.00
336;DHT22;156;48.738;9.228;2023-02-22T17:39:32;11.10;1.00
336;DHT22;156;48.738;9.228;2023-02-22T17:41:59;11.10;1.00
336;DHT22;156;48.738;9.228;2023-02-22T17:44:26;11.10;1.00
336;DHT22;156;48.738;9.228;2023-02-22T17:46:55;11.10;1.00
336;DHT22;156;48.738;9.228;2023-02-22T17:49:22;11.10;1.00
336;DHT22;156;48.738;9.228;2023-02-22T17:51:49;11.10;1.00
336;DHT22;156;48.738;9.228;2023-02-22T17:54:17;11.10;1.00
336;DHT22;156;48.738;9.228;2023-02-22T17:56:45;11.00;1.00
336;DHT22;156;48.738;9.228;2023-02-22T17:59:12;11.00;1.00
336;DHT22;156;48.738;9.228;2023-02-22T18:01:39;11.00;1.00
336;DHT22;156;48.738;9.228;2023-02-22T18:04:09;11.00;1.00
336;DHT22;156;48.738;9.228;2023-02-22T18:06:36;11.00;1.00
336;DHT22;156;48.738;9.228;2023-02-22T18:09:04;10.90;1.00
336;DHT22;156;48.738;9.228;2023-02-22T18:11:36;10.90;1.00
336;DHT22;156;48.738;9.228;2023-02-22T18:14:03;10.90;1.00
336;DHT22;156;48.738;9.228;2023-02-22T18:16:32;10.90;1.00
336;DHT22;156;48.738;9.228;2023-02-22T18:19:00;10.90;1.00
336;DHT22;156;48.738;9.228;2023-02-22T18:21:29;10.90;1.00
336;DHT22;156;48.738;9.228;2023-02-22T18:23:56;11.00;1.00
336;DHT22;156;48.738;9.228;2023-02-22T18:26:24;11.00;1.00
336;DHT22;156;48.738;9.228;2023-02-22T18:28:51;11.00;1.00
336;DHT22;156;48.738;9.228;2023-02-22T18:31:19;11.00;1.00
336;DHT22;156;48.738;9.228;2023-02-22T18:33:48;11.10;1.00
336;DHT22;156;48.738;9.228;2023-02-22T18:36:17;11.00;1.00
336;DHT22;156;48.738;9.228;2023-02-22T18:38:49;10.90;1.00
336;DHT22;156;48.738;9.228;2023-02-22T18:41:17;10.80;1.00
336;DHT22;156;48.738;9.228;2023-02-22T18:43:45;10.80;1.00
336;DHT22;156;48.738;9.228;2023-02-22T18:46:13;10.80;1.00
336;DHT22;156;48.738;9.228;2023-02-22T18:48:42;10.80;1.00
336;DHT22;156;48.738;9.228;2023-02-22T18:51:10;10.80;1.00
336;DHT22;156;48.738;9.228;2023-02-22T18:53:49;10.80;1.00
336;DHT22;156;48.738;9.228;2023-02-22T18:56:21;10.80;1.00
336;DHT22;156;48.738;9.228;2023-02-22T19:01:57;11.00;1.00
336;DHT22;156;48.738;9.228;2023-02-22T19:04:56;12.70;1.00
336;DHT22;156;48.738;9.228;2023-02-22T19:07:38;11.30;1.00